• Join FlightAware (Why Join?)
  • Login
  • US Flag 
02:58AM EDT


 

Airport Tracker/Info


-or-


 

Live Flight TrackerFlight Track Log ✈ DAL3676 ✈ 06-Jul-2013 ✈ KIND - KMSP

Flight Track Log - Related Links

Times and Time Zones

All times are in EDT time to prevent confusion due to time zone crossing. See the DAL3676 flight status page for this flight to view local times or setup timezone preferences in your user account.

Time Position Orientation Groundspeed Altitude Reporting Facility
EDT Latitude Longitude Course Direction KTS MPH feet Rate Location/Type
05:36PM 39.7000 -86.3000 313° West 135 155 1,300  Level Indianapolis TRACON
05:37PM 39.6833 -86.3167 218° Southwest 141 162 2,200 1,560 Climbing Indianapolis TRACON
05:38PM 39.6769 -86.3689 261° West 161 185 3,500 1,740 Climbing Indianapolis Center
05:39PM 39.9700 -86.5199 323° Northwest  Level FlightAware Approximate
05:39PM 39.7467 -86.3847 350° North 241 277 5,400  Level Indianapolis Center
05:40PM 40.0540 -86.6039 323° Northwest  Level FlightAware Approximate
05:40PM 39.8269 -86.3919 356° North 275 316 6,000  Level Indianapolis Center
05:41PM 40.1380 -86.6880 323° Northwest  Level FlightAware Approximate
05:41PM 39.9067 -86.4031 354° North 285 328 6,000  Level Indianapolis Center
05:42PM 40.2170 -86.7853 313° West  Level Estimated
05:42PM 39.9856 -86.4178 352° North 288 331 8,500  Level Indianapolis Center
05:43PM 40.0608 -86.4633 335° Northwest 298 343 10,500 1,680 Climbing Indianapolis Center
05:44PM 40.1456 -86.5156 335° Northwest 325 374 12,000 1,620 Climbing Indianapolis Center
05:45PM 40.2197 -86.6019 318° Northwest 355 409 13,900 1,740 Climbing Indianapolis Center
05:46PM 40.3133 -86.6522 338° Northwest 364 419 15,600 1,440 Climbing Indianapolis Center
05:47PM 40.4094 -86.7044 338° Northwest 373 429 16,900 1,380 Climbing Indianapolis Center
05:48PM 40.5281 -86.7719 337° Northwest 387 445 18,500 1,320 Climbing Indianapolis Center
05:49PM 40.6278 -86.8267 337° Northwest 388 447 19,600 1,080 Climbing Indianapolis Center
05:50PM 40.7286 -86.8836 337° Northwest 395 455 20,800 1,200 Climbing Indianapolis Center
05:51PM 40.8294 -86.9394 337° Northwest 395 455 22,100 1,080 Climbing Indianapolis Center
05:52PM 40.9294 -86.9964 337° Northwest 392 451 23,000 840 Climbing Indianapolis Center
05:53PM 41.0322 -87.0536 337° Northwest 402 463 23,900 900 Climbing Indianapolis Center
05:54PM 41.1653 -87.1281 337° Northwest 414 476 25,000 840 Climbing Chicago Center
05:55PM 41.2631 -87.2047 329° Northwest 414 476 25,800 600 Climbing Chicago Center
05:56PM 41.3597 -87.2872 327° Northwest 414 476 26,300 480 Climbing Chicago Center
05:57PM 41.4603 -87.3753 327° Northwest 428 493 26,800 480 Climbing Chicago Center
05:58PM 41.5836 -87.4800 328° Northwest 442 509 27,400 540 Climbing Chicago Center
05:59PM 41.7014 -87.5400 339° North 459 528 28,000 240 Climbing Chicago Center
06:00PM 41.8200 -87.6006 339° North 461 531 28,000  Level Chicago Center
06:01PM 41.9422 -87.6619 340° North 473 544 28,000  Level Chicago Center
06:02PM 42.0664 -87.7269 339° North 482 555 28,000  Level Chicago Center
06:03PM 42.2158 -87.8058 339° North 483 556 28,000  Level Chicago Center
06:04PM 42.3308 -87.8656 339° North 480 552 28,000  Level Chicago Center
06:05PM 42.4536 -87.9300 339° North 474 545 28,000  Level Chicago Center
06:06PM 42.5950 -88.0044 339° North 466 536 28,000  Level Chicago Center
06:08PM 42.7150 -88.0697 338° Northwest 464 534 28,000  Level Chicago Center
06:09PM 42.8039 -88.1922 315° West 451 519 28,000  Level Chicago Center
06:10PM 42.8939 -88.3150 315° West 456 525 28,000  Level Chicago Center
06:11PM 42.9828 -88.4358 315° West 449 517 28,000  Level Chicago Center
06:12PM 43.0711 -88.5558 315° West 447 514 28,000  Level Chicago Center
06:13PM 43.1611 -88.6775 315° West 448 516 28,000  Level Chicago Center
06:14PM 43.2511 -88.8022 315° West 453 521 28,000  Level Chicago Center
06:15PM 43.3411 -88.9253 315° West 453 521 28,000  Level Chicago Center
06:16PM 43.4458 -89.0703 315° West 454 522 28,000  Level Chicago Center
06:17PM 43.5356 -89.1944 315° West 455 524 28,000  Level Chicago Center
06:18PM 43.6233 -89.3183 314° West 452 520 28,000  Level Chicago Center
06:19PM 43.7117 -89.4422 315° West 451 519 28,000  Level Chicago Center
06:20PM 43.8006 -89.5658 315° West 452 520 28,000  Level Chicago Center
06:21PM 43.8775 -89.7011 308° West 448 516 28,000  Level Chicago Center
06:22PM 43.9464 -89.8469 303° West 452 520 28,000  Level Chicago Center
06:23PM 44.0147 -89.9928 303° West 452 520 28,000  Level Minneapolis Center
06:24PM 44.0833 -90.1392 303° West 451 519 28,000  Level Minneapolis Center
06:25PM 44.1397 -90.2617 303° West 451 519 28,000  Level Minneapolis Center
06:26PM 44.2197 -90.4322 303° West 451 519 28,000  Level Minneapolis Center
06:27PM 44.2903 -90.5833 303° West 450 518 28,000  Level Minneapolis Center
06:28PM 44.3561 -90.7250 303° West 449 517 28,000  Level Minneapolis Center
06:29PM 44.4333 -90.8947 303° West 444 511 28,000  Level Minneapolis Center
06:30PM 44.4950 -91.0294 303° West 442 509 28,000  Level Minneapolis Center
06:31PM 44.5739 -91.2042 302° West 444 511 28,000 -1,140 Level Minneapolis Center
06:32PM 44.6378 -91.3472 302° West 439 505 25,700 -2,220 Descending Minneapolis Center
06:33PM 44.6983 -91.4814 302° West 419 482 23,600 -2,280 Descending Minneapolis Center
06:34PM 44.7678 -91.6378 302° West 400 460 21,100 -2,280 Descending Minneapolis Center
06:35PM 44.8253 -91.7694 302° West 398 458 19,000 -2,040 Descending Minneapolis Center
06:36PM 44.8806 -91.8950 302° West 383 441 17,000 -1,740 Descending Minneapolis Center
06:38PM 44.9328 -92.0158 301° West 367 422 15,100 -1,800 Descending Minneapolis Center
06:39PM 44.9936 -92.1567 301° West 353 406 13,000 -1,740 Descending Minneapolis Center
06:40PM 45.0417 -92.2689 301° West 338 389 11,300 -840 Descending Minneapolis Center
06:41PM 45.0281 -92.4211 263° West 330 380 11,000 -180 Descending Minneapolis Center
06:42PM 45.0003 -92.6000 258° West 335 386 11,000  Level Minneapolis Center
06:43PM 44.9797 -92.7286 257° West 336 387 11,000 -300 Level Minneapolis Center
06:44PM 44.9603 -92.8503 257° West 321 369 10,500 -1,020 Descending Minneapolis Center
06:45PM 44.9444 -92.9514 258° West 271 312 9,000 -1,260 Descending Minneapolis Center
06:46PM 44.9286 -93.0489 257° West 258 297 8,000 -1,140 Descending Minneapolis Center
06:47PM 44.9658 -93.1417 300° West 283 326 6,500 -900 Descending Minneapolis Center
06:48PM 45.0258 -93.2519 308° West 245 282 6,000 -300 Descending Minneapolis Center
06:49PM 45.0672 -93.3242 309° West 239 275 5,900 -540 Descending Minneapolis Center
06:50PM 45.0914 -93.4014 294° West 225 259 4,900 -960 Descending Minneapolis Center
06:51PM 45.0383 -93.4011 180° South 213 245 4,000 -540 Descending Minneapolis Center
06:53PM 44.9944 -93.3828 164° South 207 238 3,800 -600 Descending Minneapolis Center
06:54PM 44.9453 -93.3439 151° Southeast 170 196 2,800 -1,020 Descending Minneapolis Center